createdAt,value
2023-04-04T00:01:40.524Z,100570.16
2023-04-04T00:04:43.382Z,100570.44
2023-04-04T00:07:47.417Z,100578.34
2023-04-04T00:10:50.008Z,100578.06
2023-04-04T00:13:52.515Z,100577.94
2023-04-04T00:16:54.981Z,100582.09
2023-04-04T00:19:58.088Z,100584.75
2023-04-04T00:23:00.681Z,100591.53
2023-04-04T00:26:03.552Z,100596.91
2023-04-04T00:29:06.060Z,100591.38
2023-04-04T00:32:08.689Z,100594.72
2023-04-04T00:35:11.252Z,100596.38
2023-04-04T00:38:13.789Z,100594.03
2023-04-04T00:41:17.513Z,100603.44
2023-04-04T00:44:20.596Z,100598.88
2023-04-04T00:47:26.216Z,100593.75
2023-04-04T00:50:29.421Z,100601.38
2023-04-04T00:53:32.396Z,100600.53
2023-04-04T00:56:39.659Z,100592.91
2023-04-04T00:59:43.320Z,100592.63
2023-04-04T01:02:47.505Z,100591.78
2023-04-04T01:05:50.353Z,100584.44
2023-04-04T01:08:55.540Z,100575.84
2023-04-04T01:11:59.065Z,100568.53
2023-04-04T01:15:03.426Z,100558.69
2023-04-04T01:18:07.154Z,100552.88
2023-04-04T01:21:17.213Z,100553.00
2023-04-04T01:24:22.875Z,100547.75
2023-04-04T01:27:32.835Z,100538.19
2023-04-04T01:30:44.545Z,100540.97
2023-04-04T01:33:55.610Z,100530.84
2023-04-04T01:37:07.209Z,100529.31
2023-04-04T01:40:19.736Z,100526.69
2023-04-04T01:43:24.650Z,100519.63
2023-04-04T01:46:27.731Z,100521.97
2023-04-04T01:49:30.577Z,100517.28
2023-04-04T01:52:33.208Z,100507.41
2023-04-04T01:55:35.861Z,100516.28
2023-04-04T01:58:39.086Z,100499.41
2023-04-04T02:01:41.618Z,100495.22
2023-04-04T02:04:44.330Z,100494.09
2023-04-04T02:07:50.778Z,100481.50
2023-04-04T02:11:05.719Z,100480.00
2023-04-04T02:14:08.873Z,100476.66
2023-04-04T02:17:11.940Z,100470.16
2023-04-04T02:20:15.108Z,100466.69
2023-04-04T02:23:17.604Z,100456.44
2023-04-04T02:26:20.050Z,100457.97
2023-04-04T02:29:23.496Z,100444.13
2023-04-04T02:32:27.486Z,100439.53
2023-04-04T02:35:30.193Z,100440.78
2023-04-04T02:38:33.449Z,100441.34
2023-04-04T02:41:38.597Z,100429.56
2023-04-04T02:44:41.155Z,100433.31
2023-04-04T02:47:52.803Z,100434.25
2023-04-04T02:51:00.549Z,100432.47
2023-04-04T02:54:04.210Z,100434.28
2023-04-04T02:57:13.317Z,100429.84
2023-04-04T03:00:16.126Z,100437.75
2023-04-04T03:03:19.034Z,100437.59
2023-04-04T03:06:23.463Z,100447.00
2023-04-04T03:09:26.150Z,100453.53
2023-04-04T03:12:28.715Z,100449.25
2023-04-04T03:15:31.667Z,100451.47
2023-04-04T03:18:34.819Z,100453.97
2023-04-04T03:21:37.454Z,100458.94
2023-04-04T03:24:40.380Z,100455.09
2023-04-04T03:27:43.324Z,100457.72
2023-04-04T03:30:46.025Z,100458.94
2023-04-04T03:33:49.317Z,100470.59
2023-04-04T03:36:53.677Z,100461.47
2023-04-04T03:39:56.435Z,100461.47
2023-04-04T03:42:59.138Z,100463.94
2023-04-04T03:46:02.903Z,100472.13
2023-04-04T03:49:05.479Z,100466.00
2023-04-04T03:52:08.537Z,100474.88
2023-04-04T03:55:11.418Z,100471.09
2023-04-04T03:58:13.972Z,100471.00
2023-04-04T04:01:16.679Z,100468.09
2023-04-04T04:04:19.288Z,100479.28
2023-04-04T04:07:21.878Z,100469.31
2023-04-04T04:10:24.420Z,100467.09
2023-04-04T04:13:27.289Z,100469.69
2023-04-04T04:16:30.834Z,100469.53
2023-04-04T04:19:34.724Z,100462.03
2023-04-04T04:22:38.148Z,100469.41
2023-04-04T04:25:40.963Z,100459.66
2023-04-04T04:28:51.060Z,100462.03
2023-04-04T04:32:03.360Z,100465.72
2023-04-04T04:35:10.034Z,100471.28
2023-04-04T04:38:14.251Z,100465.72
2023-04-04T04:41:17.159Z,100466.72
2023-04-04T04:44:23.368Z,100471.72
2023-04-04T04:47:26.656Z,100467.16
2023-04-04T04:50:29.736Z,100469.16
2023-04-04T04:53:33.026Z,100463.06
2023-04-04T04:56:35.751Z,100460.75
2023-04-04T04:59:43.586Z,100461.97
2023-04-04T05:02:48.778Z,100462.56
2023-04-04T05:05:57.459Z,100460.19
2023-04-04T05:09:00.241Z,100459.53
2023-04-04T05:12:07.882Z,100454.78
2023-04-04T05:15:17.388Z,100459.63
2023-04-04T05:18:22.981Z,100463.41
2023-04-04T05:21:25.648Z,100465.19
2023-04-04T05:24:30.609Z,100465.34
2023-04-04T05:27:34.944Z,100459.66
2023-04-04T05:30:40.379Z,100469.75
2023-04-04T05:34:08.295Z,100459.22
2023-04-04T05:37:11.496Z,100472.38
2023-04-04T05:40:14.734Z,100467.69
2023-04-04T05:43:19.630Z,100470.69
2023-04-04T05:46:35.074Z,100475.28
2023-04-04T05:49:37.712Z,100479.16
2023-04-04T05:52:40.530Z,100485.13
2023-04-04T05:55:53.460Z,100485.38
2023-04-04T05:58:58.792Z,100486.47
2023-04-04T06:02:04.537Z,100484.66
2023-04-04T06:05:08.972Z,100490.56
2023-04-04T06:08:14.782Z,100490.13
2023-04-04T06:11:17.431Z,100483.09
2023-04-04T06:14:20.565Z,100484.88
2023-04-04T06:17:24.465Z,100484.81
2023-04-04T06:20:27.058Z,100483.22
2023-04-04T06:23:29.644Z,100482.59
2023-04-04T06:26:32.446Z,100481.53
2023-04-04T06:29:37.448Z,100485.06
2023-04-04T06:32:42.484Z,100492.47
2023-04-04T06:35:49.144Z,100488.19
2023-04-04T06:38:52.761Z,100485.31
2023-04-04T06:41:57.504Z,100463.41
2023-04-04T06:45:03.910Z,100437.59
2023-04-04T06:48:06.611Z,100434.41
2023-04-04T06:51:09.659Z,100442.22
2023-04-04T06:54:15.471Z,100436.31
2023-04-04T06:57:18.356Z,100438.75
2023-04-04T07:00:21.852Z,100436.25
2023-04-04T07:03:25.050Z,100443.56
2023-04-04T07:06:29.779Z,100437.09
2023-04-04T07:09:32.347Z,100433.94
2023-04-04T07:12:35.157Z,100439.91
2023-04-04T07:15:38.375Z,100449.69
2023-04-04T07:18:41.562Z,100454.34
2023-04-04T07:21:45.438Z,100458.84
2023-04-04T07:24:48.683Z,100450.91
2023-04-04T07:27:59.627Z,100458.69
2023-04-04T07:31:08.544Z,100461.38
2023-04-04T07:34:11.079Z,100460.63
2023-04-04T07:37:15.233Z,100463.97
2023-04-04T07:40:18.393Z,100470.34
2023-04-04T07:43:21.542Z,100467.25
2023-04-04T07:46:24.210Z,100457.72
2023-04-04T07:49:26.766Z,100452.94
2023-04-04T07:52:29.468Z,100458.59
2023-04-04T07:55:32.011Z,100465.22
2023-04-04T07:58:35.564Z,100463.88
2023-04-04T08:01:38.131Z,100453.59
2023-04-04T08:04:41.181Z,100450.53
2023-04-04T08:07:43.824Z,100445.06
2023-04-04T08:10:49.329Z,100457.63
2023-04-04T08:13:51.983Z,100463.94
2023-04-04T08:16:54.719Z,100459.75
2023-04-04T08:19:57.291Z,100453.91
2023-04-04T08:22:59.975Z,100455.63
2023-04-04T08:26:02.739Z,100451.88
2023-04-04T08:29:05.263Z,100449.38
2023-04-04T08:32:08.245Z,100466.94
2023-04-04T08:35:11.397Z,100462.22
2023-04-04T08:38:13.893Z,100465.06
2023-04-04T08:41:17.035Z,100467.66
2023-04-04T08:44:22.333Z,100458.78
2023-04-04T08:47:26.761Z,100448.44
2023-04-04T08:50:30.662Z,100450.56
2023-04-04T08:53:34.501Z,100444.44
2023-04-04T08:56:37.625Z,100435.28
2023-04-04T08:59:40.466Z,100431.78
2023-04-04T09:03:13.369Z,100435.88
2023-04-04T09:06:19.345Z,100432.00
2023-04-04T09:09:22.939Z,100433.59
2023-04-04T09:12:26.340Z,100421.66
2023-04-04T09:15:29.834Z,100429.31
2023-04-04T09:18:32.434Z,100431.00
2023-04-04T09:21:37.508Z,100415.50
2023-04-04T09:24:41.795Z,100429.50
2023-04-04T09:27:49.412Z,100429.66
2023-04-04T09:30:52.968Z,100426.91
2023-04-04T09:33:58.534Z,100417.28
2023-04-04T09:37:03.204Z,100417.22
2023-04-04T09:40:15.214Z,100423.31
2023-04-04T09:43:19.592Z,100417.81
2023-04-04T09:46:22.333Z,100411.66
2023-04-04T09:49:24.967Z,100415.50
2023-04-04T09:52:28.012Z,100404.75
2023-04-04T09:55:36.604Z,100393.22
2023-04-04T09:58:44.230Z,100404.69
2023-04-04T10:01:51.476Z,100396.88
2023-04-04T10:05:05.208Z,100385.59
2023-04-04T10:08:18.855Z,100394.41
2023-04-04T10:11:30.932Z,100397.84
2023-04-04T10:14:35.291Z,100401.63
2023-04-04T10:17:57.201Z,100392.38
2023-04-04T10:21:14.622Z,100391.72
2023-04-04T10:24:19.333Z,100393.00
2023-04-04T10:27:22.296Z,100383.13
2023-04-04T10:30:25.210Z,100370.28
2023-04-04T10:33:37.514Z,100377.34
2023-04-04T10:37:10.041Z,100374.19
2023-04-04T10:40:17.470Z,100366.53
2023-04-04T10:43:27.259Z,100358.69
2023-04-04T10:46:32.117Z,100356.16
2023-04-04T10:49:36.856Z,100354.03
2023-04-04T10:52:44.227Z,100362.38
2023-04-04T10:55:47.578Z,100361.28
2023-04-04T10:58:50.778Z,100366.38
2023-04-04T11:02:02.522Z,100362.09
2023-04-04T11:05:29.397Z,100358.06
2023-04-04T11:08:35.622Z,100355.28
2023-04-04T11:12:08.317Z,100359.84
2023-04-04T11:15:13.213Z,100355.22
2023-04-04T11:18:31.487Z,100351.91
2023-04-04T11:21:36.194Z,100354.88
2023-04-04T11:24:43.890Z,100349.94
2023-04-04T11:27:46.587Z,100344.28
2023-04-04T11:31:18.661Z,100334.06
2023-04-04T11:34:32.569Z,100335.22
2023-04-04T11:38:04.094Z,100332.44
2023-04-04T11:41:08.074Z,100344.34
2023-04-04T11:44:11.814Z,100334.25
2023-04-04T11:47:14.383Z,100330.88
2023-04-04T11:50:21.771Z,100320.81
2023-04-04T11:53:24.242Z,100322.28
2023-04-04T11:56:27.457Z,100321.03
2023-04-04T11:59:31.494Z,100322.13
2023-04-04T12:02:40.464Z,100324.66
2023-04-04T12:05:44.475Z,100321.56
2023-04-04T12:08:48.242Z,100313.47
2023-04-04T12:11:51.794Z,100311.22
2023-04-04T12:15:06.181Z,100309.69
2023-04-04T12:18:22.441Z,100305.19
2023-04-04T12:21:25.681Z,100297.72
2023-04-04T12:24:28.491Z,100293.53
2023-04-04T12:27:31.272Z,100292.06
2023-04-04T12:30:34.785Z,100296.47
2023-04-04T12:33:38.152Z,100287.03
2023-04-04T12:36:41.443Z,100285.56
2023-04-04T12:39:49.534Z,100288.31
2023-04-04T12:42:53.124Z,100279.59
2023-04-04T12:45:58.128Z,100274.50
2023-04-04T12:49:00.945Z,100276.41
2023-04-04T12:52:05.556Z,100276.31
2023-04-04T12:55:10.119Z,100273.03
2023-04-04T12:58:13.058Z,100268.69
2023-04-04T13:01:17.460Z,100264.50
2023-04-04T13:04:21.541Z,100261.81
2023-04-04T13:07:32.487Z,100251.25
2023-04-04T13:11:07.083Z,100254.69
2023-04-04T13:14:13.098Z,100257.31
2023-04-04T13:17:17.584Z,100260.44
2023-04-04T13:20:22.190Z,100262.88
2023-04-04T13:23:24.991Z,100256.44
2023-04-04T13:26:27.875Z,100259.00
2023-04-04T13:29:30.561Z,100253.81
2023-04-04T13:32:33.535Z,100253.63
2023-04-04T13:35:36.562Z,100250.94
2023-04-04T13:38:39.326Z,100247.59
2023-04-04T13:41:41.827Z,100246.56
2023-04-04T13:44:44.336Z,100246.81
2023-04-04T13:47:47.141Z,100245.09
2023-04-04T13:50:54.096Z,100251.66
2023-04-04T13:53:56.870Z,100251.38
2023-04-04T13:56:59.404Z,100249.13
2023-04-04T14:00:02.344Z,100244.81
2023-04-04T14:03:12.796Z,100250.09
2023-04-04T14:06:15.589Z,100245.75
2023-04-04T14:09:18.909Z,100244.16
2023-04-04T14:12:21.450Z,100245.59
2023-04-04T14:15:24.325Z,100251.78
2023-04-04T14:18:27.251Z,100239.94
2023-04-04T14:21:29.871Z,100245.53
2023-04-04T14:24:32.461Z,100247.72
2023-04-04T14:27:35.012Z,100245.31
2023-04-04T14:30:37.542Z,100247.09
2023-04-04T14:33:40.096Z,100249.03
2023-04-04T14:36:42.642Z,100257.69
2023-04-04T14:39:45.305Z,100257.38
2023-04-04T14:42:47.985Z,100249.75
2023-04-04T14:45:51.125Z,100247.16
2023-04-04T14:48:54.001Z,100254.84
2023-04-04T14:51:56.759Z,100247.59
2023-04-04T14:54:59.438Z,100252.53
2023-04-04T14:58:03.199Z,100250.22
2023-04-04T15:01:06.402Z,100252.81
2023-04-04T15:04:09.403Z,100251.16
2023-04-04T15:07:11.915Z,100251.97
2023-04-04T15:10:14.534Z,100248.31
2023-04-04T15:13:17.188Z,100251.50
2023-04-04T15:16:19.719Z,100257.44
2023-04-04T15:19:22.291Z,100259.38
2023-04-04T15:22:25.124Z,100261.91
2023-04-04T15:25:28.830Z,100260.25
2023-04-04T15:28:31.633Z,100261.41
2023-04-04T15:31:34.257Z,100270.00
2023-04-04T15:34:36.837Z,100275.50
2023-04-04T15:37:39.376Z,100268.50
2023-04-04T15:40:42.217Z,100274.50
2023-04-04T15:43:44.946Z,100275.22
2023-04-04T15:46:47.436Z,100284.81
2023-04-04T15:49:49.965Z,100283.81
2023-04-04T15:52:52.504Z,100288.34
2023-04-04T15:55:55.216Z,100292.81
2023-04-04T15:58:58.596Z,100289.06
2023-04-04T16:02:01.222Z,100294.56
2023-04-04T16:05:04.997Z,100304.56
2023-04-04T16:08:07.575Z,100311.06
2023-04-04T16:11:10.139Z,100306.31
2023-04-04T16:14:13.752Z,100306.91
2023-04-04T16:17:16.876Z,100317.69
2023-04-04T16:20:20.121Z,100322.72
2023-04-04T16:23:22.580Z,100325.84
2023-04-04T16:26:25.751Z,100332.56
2023-04-04T16:29:31.224Z,100331.75
2023-04-04T16:32:34.566Z,100341.63
2023-04-04T16:35:38.481Z,100349.34
2023-04-04T16:38:41.323Z,100351.81
2023-04-04T16:41:44.009Z,100359.38
2023-04-04T16:44:47.420Z,100368.06
2023-04-04T16:47:50.161Z,100363.09
2023-04-04T16:50:54.696Z,100365.25
2023-04-04T16:53:57.401Z,100363.59
2023-04-04T16:57:00.476Z,100380.75
2023-04-04T17:00:05.905Z,100375.84
2023-04-04T17:03:08.410Z,100379.16
2023-04-04T17:06:11.058Z,100379.88
2023-04-04T17:09:14.075Z,100391.94
2023-04-04T17:12:17.331Z,100391.31
2023-04-04T17:15:19.935Z,100401.94
2023-04-04T17:18:23.015Z,100407.47
2023-04-04T17:21:26.365Z,100408.00
2023-04-04T17:24:28.949Z,100406.56
2023-04-04T17:27:31.643Z,100415.84
2023-04-04T17:30:34.469Z,100419.84
2023-04-04T17:33:37.051Z,100413.06
2023-04-04T17:36:39.822Z,100423.66
2023-04-04T17:39:45.433Z,100431.63
2023-04-04T17:42:48.199Z,100438.59
2023-04-04T17:45:50.928Z,100445.34
2023-04-04T17:48:54.656Z,100445.34
2023-04-04T17:51:57.302Z,100450.50
2023-04-04T17:55:00.005Z,100461.06
2023-04-04T17:58:02.500Z,100466.69
2023-04-04T18:01:06.009Z,100470.63
2023-04-04T18:04:09.586Z,100478.88
2023-04-04T18:07:12.416Z,100480.19
2023-04-04T18:10:17.388Z,100484.31
2023-04-04T18:13:20.626Z,100491.06
2023-04-04T18:16:23.539Z,100499.16
2023-04-04T18:19:26.534Z,100502.13
2023-04-04T18:22:29.861Z,100499.31
2023-04-04T18:25:36.116Z,100500.75
2023-04-04T18:28:38.794Z,100507.06
2023-04-04T18:31:41.547Z,100511.97
2023-04-04T18:34:44.261Z,100513.94
2023-04-04T18:37:46.852Z,100517.22
2023-04-04T18:40:50.149Z,100524.47
2023-04-04T18:43:53.436Z,100524.25
2023-04-04T18:46:58.754Z,100532.66
2023-04-04T18:50:01.630Z,100533.78
2023-04-04T18:53:04.606Z,100543.16
2023-04-04T18:56:07.504Z,100548.41
2023-04-04T18:59:10.109Z,100552.19
2023-04-04T19:02:13.227Z,100559.06
2023-04-04T19:05:22.910Z,100567.59
2023-04-04T19:08:26.514Z,100564.31
2023-04-04T19:11:32.220Z,100566.41
2023-04-04T19:14:35.198Z,100572.16
2023-04-04T19:17:37.842Z,100578.22
2023-04-04T19:20:43.545Z,100584.03
2023-04-04T19:23:47.231Z,100583.34
2023-04-04T19:26:49.978Z,100589.75
2023-04-04T19:29:54.893Z,100588.97
2023-04-04T19:32:57.614Z,100590.13
2023-04-04T19:36:08.080Z,100596.81
2023-04-04T19:39:11.443Z,100596.06
2023-04-04T19:42:14.733Z,100592.09
2023-04-04T19:45:47.753Z,100601.59
2023-04-04T19:48:55.223Z,100605.09
2023-04-04T19:52:01.046Z,100601.78
2023-04-04T19:55:09.610Z,100609.00
2023-04-04T19:58:21.839Z,100611.88
2023-04-04T20:01:30.441Z,100606.31
2023-04-04T20:04:33.196Z,100601.72
2023-04-04T20:07:42.212Z,100608.16
2023-04-04T20:10:45.519Z,100610.78
2023-04-04T20:13:49.982Z,100615.75
2023-04-04T20:16:53.838Z,100609.09
2023-04-04T20:19:56.653Z,100605.94
2023-04-04T20:22:59.733Z,100611.34
2023-04-04T20:26:07.019Z,100609.69
2023-04-04T20:29:17.967Z,100621.66
2023-04-04T20:32:20.757Z,100613.75
2023-04-04T20:35:27.981Z,100618.47
2023-04-04T20:38:30.913Z,100615.47
2023-04-04T20:41:33.434Z,100628.38
2023-04-04T20:44:36.323Z,100621.59
2023-04-04T20:47:46.341Z,100613.44
2023-04-04T20:50:49.223Z,100614.41
2023-04-04T20:53:53.281Z,100624.66
2023-04-04T20:56:57.250Z,100625.50
2023-04-04T20:59:59.930Z,100626.59
2023-04-04T21:03:42.932Z,100633.41
2023-04-04T21:06:45.474Z,100630.22
2023-04-04T21:09:48.049Z,100639.81
2023-04-04T21:12:51.857Z,100638.59
2023-04-04T21:16:01.233Z,100639.44
2023-04-04T21:19:04.845Z,100638.31
2023-04-04T21:22:07.391Z,100637.38
2023-04-04T21:25:38.517Z,100631.09
2023-04-04T21:28:45.591Z,100640.28
2023-04-04T21:31:50.637Z,100632.91
2023-04-04T21:34:53.172Z,100633.34
2023-04-04T21:37:55.774Z,100630.31
2023-04-04T21:41:07.312Z,100624.50
2023-04-04T21:44:10.727Z,100628.50
2023-04-04T21:47:14.661Z,100624.06
2023-04-04T21:50:18.416Z,100627.00
2023-04-04T21:53:22.338Z,100627.97
2023-04-04T21:56:27.620Z,100628.25
2023-04-04T21:59:30.260Z,100634.75
2023-04-04T22:02:32.909Z,100630.19
2023-04-04T22:05:38.999Z,100632.97
2023-04-04T22:08:42.554Z,100629.50
2023-04-04T22:11:45.108Z,100627.28
2023-04-04T22:14:50.555Z,100627.69
2023-04-04T22:17:54.986Z,100628.94
2023-04-04T22:21:02.955Z,100630.91
2023-04-04T22:24:06.335Z,100630.63
2023-04-04T22:27:08.935Z,100628.13
2023-04-04T22:30:11.870Z,100631.31
2023-04-04T22:33:14.749Z,100631.19
2023-04-04T22:36:17.681Z,100636.31
2023-04-04T22:39:22.854Z,100636.31
2023-04-04T22:42:25.520Z,100633.53
2023-04-04T22:45:30.245Z,100629.50
2023-04-04T22:48:38.668Z,100625.91
2023-04-04T22:51:45.394Z,100627.28
2023-04-04T22:54:48.343Z,100627.00
2023-04-04T22:57:51.198Z,100615.78
2023-04-04T23:00:55.997Z,100620.50
2023-04-04T23:03:58.863Z,100612.75
2023-04-04T23:07:01.478Z,100617.31
2023-04-04T23:10:05.463Z,100614.25
2023-04-04T23:13:11.547Z,100621.19
2023-04-04T23:16:14.157Z,100625.06
2023-04-04T23:19:17.059Z,100627.03
2023-04-04T23:22:19.828Z,100615.78
2023-04-04T23:25:22.344Z,100621.63
2023-04-04T23:28:27.116Z,100613.44
2023-04-04T23:31:29.791Z,100618.69
2023-04-04T23:34:32.356Z,100619.81
2023-04-04T23:37:34.896Z,100617.28
2023-04-04T23:40:39.513Z,100618.13
2023-04-04T23:43:43.265Z,100624.25
2023-04-04T23:46:46.723Z,100621.19
2023-04-04T23:49:49.318Z,100619.09
2023-04-04T23:52:51.909Z,100612.19
2023-04-04T23:55:55.639Z,100615.75
2023-04-04T23:58:58.286Z,100619.94
